sensor_id;sensor_type;location;lat;lon;timestamp;pressure;altitude;pressure_sealevel;temperature;humidity
31681;BME280;18281;51.364;9.566;2023-03-17T00:00:12;99772.56;;;0.59;100.00
31681;BME280;18281;51.364;9.566;2023-03-17T00:02:39;99775.16;;;0.57;100.00
31681;BME280;18281;51.364;9.566;2023-03-17T00:07:39;99769.25;;;0.50;100.00
31681;BME280;18281;51.364;9.566;2023-03-17T00:10:12;99762.38;;;0.51;100.00
31681;BME280;18281;51.364;9.566;2023-03-17T00:12:37;99769.38;;;0.44;100.00
31681;BME280;18281;51.364;9.566;2023-03-17T00:15:03;99767.63;;;0.45;100.00
31681;BME280;18281;51.364;9.566;2023-03-17T00:17:29;99759.03;;;0.44;100.00
31681;BME280;18281;51.364;9.566;2023-03-17T00:19:55;99758.19;;;0.44;100.00
31681;BME280;18281;51.364;9.566;2023-03-17T00:22:20;99760.91;;;0.36;100.00
31681;BME280;18281;51.364;9.566;2023-03-17T00:24:46;99760.00;;;0.37;100.00
31681;BME280;18281;51.364;9.566;2023-03-17T00:27:12;99749.69;;;0.37;100.00
31681;BME280;18281;51.364;9.566;2023-03-17T00:29:38;99746.25;;;0.36;100.00
31681;BME280;18281;51.364;9.566;2023-03-17T00:32:08;99759.22;;;0.33;100.00
31681;BME280;18281;51.364;9.566;2023-03-17T00:34:35;99755.00;;;0.29;100.00
31681;BME280;18281;51.364;9.566;2023-03-17T00:37:01;99754.19;;;0.26;100.00
31681;BME280;18281;51.364;9.566;2023-03-17T00:39:26;99762.81;;;0.25;100.00
31681;BME280;18281;51.364;9.566;2023-03-17T00:41:51;99755.16;;;0.20;100.00
31681;BME280;18281;51.364;9.566;2023-03-17T00:44:17;99758.59;;;0.20;100.00
31681;BME280;18281;51.364;9.566;2023-03-17T00:46:42;99757.78;;;0.18;100.00
31681;BME280;18281;51.364;9.566;2023-03-17T00:49:17;99754.28;;;0.19;100.00
31681;BME280;18281;51.364;9.566;2023-03-17T00:51:44;99740.59;;;0.14;100.00
31681;BME280;18281;51.364;9.566;2023-03-17T00:54:10;99740.66;;;0.11;100.00
31681;BME280;18281;51.364;9.566;2023-03-17T00:56:37;99738.97;;;0.09;100.00
31681;BME280;18281;51.364;9.566;2023-03-17T00:59:03;99745.06;;;0.04;100.00
31681;BME280;18281;51.364;9.566;2023-03-17T01:01:29;99756.28;;;0.03;100.00
31681;BME280;18281;51.364;9.566;2023-03-17T01:03:55;99748.56;;;0.02;100.00
31681;BME280;18281;51.364;9.566;2023-03-17T01:06:20;99753.75;;;0.00;100.00
31681;BME280;18281;51.364;9.566;2023-03-17T01:08:46;99755.44;;;0.03;100.00
31681;BME280;18281;51.364;9.566;2023-03-17T01:11:17;99744.25;;;0.01;100.00
31681;BME280;18281;51.364;9.566;2023-03-17T01:13:43;99748.66;;;-0.04;100.00
31681;BME280;18281;51.364;9.566;2023-03-17T01:16:10;99754.69;;;-0.05;100.00
31681;BME280;18281;51.364;9.566;2023-03-17T01:18:36;99738.31;;;-0.03;100.00
31681;BME280;18281;51.364;9.566;2023-03-17T01:21:02;99721.97;;;-0.03;100.00
31681;BME280;18281;51.364;9.566;2023-03-17T01:23:29;99700.47;;;-0.04;100.00
31681;BME280;18281;51.364;9.566;2023-03-17T01:25:54;99723.78;;;-0.08;100.00
31681;BME280;18281;51.364;9.566;2023-03-17T01:28:20;99726.38;;;-0.10;100.00
31681;BME280;18281;51.364;9.566;2023-03-17T01:30:45;99726.38;;;-0.08;100.00
31681;BME280;18281;51.364;9.566;2023-03-17T01:33:12;99733.31;;;-0.12;100.00
31681;BME280;18281;51.364;9.566;2023-03-17T01:35:39;99730.72;;;-0.12;100.00
31681;BME280;18281;51.364;9.566;2023-03-17T01:38:05;99723.88;;;-0.15;100.00
31681;BME280;18281;51.364;9.566;2023-03-17T01:40:50;99721.25;;;-0.11;100.00
31681;BME280;18281;51.364;9.566;2023-03-17T01:43:17;99706.63;;;-0.13;100.00
31681;BME280;18281;51.364;9.566;2023-03-17T01:52:00;99715.34;;;-0.20;100.00
31681;BME280;18281;51.364;9.566;2023-03-17T01:54:38;99705.09;;;-0.23;100.00
31681;BME280;18281;51.364;9.566;2023-03-17T01:57:14;99699.97;;;-0.26;100.00
31681;BME280;18281;51.364;9.566;2023-03-17T01:59:51;99703.38;;;-0.24;100.00
31681;BME280;18281;51.364;9.566;2023-03-17T02:02:22;99706.00;;;-0.25;100.00
31681;BME280;18281;51.364;9.566;2023-03-17T02:04:50;99700.75;;;-0.21;100.00
31681;BME280;18281;51.364;9.566;2023-03-17T02:07:18;99703.34;;;-0.22;100.00
31681;BME280;18281;51.364;9.566;2023-03-17T02:09:44;99704.22;;;-0.22;100.00
31681;BME280;18281;51.364;9.566;2023-03-17T02:12:11;99697.41;;;-0.27;100.00
31681;BME280;18281;51.364;9.566;2023-03-17T02:14:37;99700.88;;;-0.28;100.00
31681;BME280;18281;51.364;9.566;2023-03-17T02:17:02;99693.91;;;-0.23;100.00
31681;BME280;18281;51.364;9.566;2023-03-17T02:19:28;99689.63;;;-0.23;100.00
31681;BME280;18281;51.364;9.566;2023-03-17T02:21:55;99682.72;;;-0.22;100.00
31681;BME280;18281;51.364;9.566;2023-03-17T02:24:31;99676.72;;;-0.23;100.00
31681;BME280;18281;51.364;9.566;2023-03-17T02:27:04;99668.13;;;-0.25;100.00
31681;BME280;18281;51.364;9.566;2023-03-17T02:29:33;99672.47;;;-0.25;100.00
31681;BME280;18281;51.364;9.566;2023-03-17T02:32:00;99681.03;;;-0.25;100.00
31681;BME280;18281;51.364;9.566;2023-03-17T02:34:26;99678.44;;;-0.23;100.00
31681;BME280;18281;51.364;9.566;2023-03-17T02:36:51;99674.97;;;-0.22;100.00
31681;BME280;18281;51.364;9.566;2023-03-17T02:39:17;99675.00;;;-0.24;100.00
31681;BME280;18281;51.364;9.566;2023-03-17T02:41:42;99672.47;;;-0.25;100.00
31681;BME280;18281;51.364;9.566;2023-03-17T02:44:08;99661.25;;;-0.26;100.00
31681;BME280;18281;51.364;9.566;2023-03-17T02:46:34;99667.25;;;-0.24;100.00
31681;BME280;18281;51.364;9.566;2023-03-17T02:48:59;99669.00;;;-0.24;100.00
31681;BME280;18281;51.364;9.566;2023-03-17T02:51:26;99667.31;;;-0.27;100.00
31681;BME280;18281;51.364;9.566;2023-03-17T02:53:52;99659.50;;;-0.22;100.00
31681;BME280;18281;51.364;9.566;2023-03-17T02:56:17;99665.63;;;-0.28;100.00
31681;BME280;18281;51.364;9.566;2023-03-17T02:58:43;99669.00;;;-0.26;100.00
31681;BME280;18281;51.364;9.566;2023-03-17T03:01:08;99671.66;;;-0.29;100.00
31681;BME280;18281;51.364;9.566;2023-03-17T03:03:34;99663.84;;;-0.26;100.00
31681;BME280;18281;51.364;9.566;2023-03-17T03:06:00;99663.91;;;-0.29;100.00
31681;BME280;18281;51.364;9.566;2023-03-17T03:08:27;99667.38;;;-0.32;100.00
31681;BME280;18281;51.364;9.566;2023-03-17T03:10:52;99665.66;;;-0.30;100.00
31681;BME280;18281;51.364;9.566;2023-03-17T03:13:19;99666.44;;;-0.27;100.00
31681;BME280;18281;51.364;9.566;2023-03-17T03:15:46;99663.09;;;-0.33;100.00
31681;BME280;18281;51.364;9.566;2023-03-17T03:18:11;99672.56;;;-0.33;100.00
31681;BME280;18281;51.364;9.566;2023-03-17T03:20:37;99669.09;;;-0.31;100.00
31681;BME280;18281;51.364;9.566;2023-03-17T03:23:02;99666.50;;;-0.31;100.00
31681;BME280;18281;51.364;9.566;2023-03-17T03:25:28;99668.38;;;-0.39;100.00
31681;BME280;18281;51.364;9.566;2023-03-17T03:27:53;99673.47;;;-0.36;100.00
31681;BME280;18281;51.364;9.566;2023-03-17T03:30:19;99675.25;;;-0.38;100.00
31681;BME280;18281;51.364;9.566;2023-03-17T03:32:45;99684.69;;;-0.38;100.00
31681;BME280;18281;51.364;9.566;2023-03-17T03:35:11;99682.97;;;-0.39;100.00
31681;BME280;18281;51.364;9.566;2023-03-17T03:37:36;99686.44;;;-0.40;100.00
31681;BME280;18281;51.364;9.566;2023-03-17T03:40:02;99682.97;;;-0.39;100.00
31681;BME280;18281;51.364;9.566;2023-03-17T03:42:28;99682.19;;;-0.43;100.00
31681;BME280;18281;51.364;9.566;2023-03-17T03:44:53;99679.63;;;-0.43;100.00
31681;BME280;18281;51.364;9.566;2023-03-17T03:47:19;99666.75;;;-0.44;100.00
31681;BME280;18281;51.364;9.566;2023-03-17T03:49:44;99665.09;;;-0.50;100.00
31681;BME280;18281;51.364;9.566;2023-03-17T03:52:10;99659.03;;;-0.48;100.00
31681;BME280;18281;51.364;9.566;2023-03-17T03:54:35;99647.03;;;-0.49;100.00
31681;BME280;18281;51.364;9.566;2023-03-17T03:57:00;99648.78;;;-0.51;100.00
31681;BME280;18281;51.364;9.566;2023-03-17T03:59:26;99647.03;;;-0.49;100.00
31681;BME280;18281;51.364;9.566;2023-03-17T04:01:51;99637.69;;;-0.56;100.00
31681;BME280;18281;51.364;9.566;2023-03-17T04:04:17;99637.69;;;-0.56;100.00
31681;BME280;18281;51.364;9.566;2023-03-17T04:06:42;99639.34;;;-0.52;100.00
31681;BME280;18281;51.364;9.566;2023-03-17T04:09:07;99641.97;;;-0.55;100.00
31681;BME280;18281;51.364;9.566;2023-03-17T04:11:33;99639.44;;;-0.59;100.00
31681;BME280;18281;51.364;9.566;2023-03-17T04:13:59;99638.59;;;-0.60;100.00
31681;BME280;18281;51.364;9.566;2023-03-17T04:16:24;99628.38;;;-0.65;100.00
31681;BME280;18281;51.364;9.566;2023-03-17T04:18:50;99630.97;;;-0.68;100.00
31681;BME280;18281;51.364;9.566;2023-03-17T04:21:15;99615.47;;;-0.66;100.00
31681;BME280;18281;51.364;9.566;2023-03-17T04:23:44;99619.84;;;-0.70;100.00
31681;BME280;18281;51.364;9.566;2023-03-17T04:26:10;99615.66;;;-0.75;100.00
31681;BME280;18281;51.364;9.566;2023-03-17T04:28:35;99619.00;;;-0.72;100.00
31681;BME280;18281;51.364;9.566;2023-03-17T04:31:01;99625.03;;;-0.73;100.00
31681;BME280;18281;51.364;9.566;2023-03-17T04:33:26;99644.00;;;-0.77;100.00
31681;BME280;18281;51.364;9.566;2023-03-17T04:35:51;99639.72;;;-0.76;100.00
31681;BME280;18281;51.364;9.566;2023-03-17T04:38:17;99632.03;;;-0.78;100.00
31681;BME280;18281;51.364;9.566;2023-03-17T04:40:42;99623.47;;;-0.82;100.00
31681;BME280;18281;51.364;9.566;2023-03-17T04:43:07;99627.78;;;-0.84;100.00
31681;BME280;18281;51.364;9.566;2023-03-17T04:45:35;99612.31;;;-0.82;100.00
31681;BME280;18281;51.364;9.566;2023-03-17T04:48:00;99614.09;;;-0.86;100.00
31681;BME280;18281;51.364;9.566;2023-03-17T04:50:26;99608.13;;;-0.89;100.00
31681;BME280;18281;51.364;9.566;2023-03-17T04:52:51;99602.94;;;-0.88;100.00
31681;BME280;18281;51.364;9.566;2023-03-17T04:55:17;99598.69;;;-0.92;100.00
31681;BME280;18281;51.364;9.566;2023-03-17T04:57:42;99603.03;;;-0.94;100.00
31681;BME280;18281;51.364;9.566;2023-03-17T05:00:08;99615.94;;;-0.95;100.00
31681;BME280;18281;51.364;9.566;2023-03-17T05:02:35;99621.13;;;-0.99;100.00
31681;BME280;18281;51.364;9.566;2023-03-17T05:05:03;99615.09;;;-0.96;100.00
31681;BME280;18281;51.364;9.566;2023-03-17T05:07:29;99615.13;;;-0.99;100.00
31681;BME280;18281;51.364;9.566;2023-03-17T05:09:54;99623.72;;;-1.00;100.00
31681;BME280;18281;51.364;9.566;2023-03-17T05:12:21;99622.91;;;-1.02;100.00
31681;BME280;18281;51.364;9.566;2023-03-17T05:14:46;99632.38;;;-1.04;100.00
31681;BME280;18281;51.364;9.566;2023-03-17T05:17:12;99634.09;;;-1.06;100.00
31681;BME280;18281;51.364;9.566;2023-03-17T05:19:38;99638.44;;;-1.08;100.00
31681;BME280;18281;51.364;9.566;2023-03-17T05:22:03;99635.88;;;-1.08;100.00
31681;BME280;18281;51.364;9.566;2023-03-17T05:24:29;99629.88;;;-1.10;100.00
31681;BME280;18281;51.364;9.566;2023-03-17T05:26:54;99624.44;;;0.16;100.00
31681;BME280;18281;51.364;9.566;2023-03-17T05:29:20;99631.16;;;1.09;100.00
31681;BME280;18281;51.364;9.566;2023-03-17T05:31:45;99631.78;;;1.20;100.00
31681;BME280;18281;51.364;9.566;2023-03-17T05:34:11;99632.25;;;0.99;100.00
31681;BME280;18281;51.364;9.566;2023-03-17T05:36:36;99630.41;;;0.62;100.00
31681;BME280;18281;51.364;9.566;2023-03-17T05:39:02;99633.84;;;0.18;100.00
31681;BME280;18281;51.364;9.566;2023-03-17T05:41:28;99623.97;;;-0.06;100.00
31681;BME280;18281;51.364;9.566;2023-03-17T05:43:53;99619.06;;;-0.20;100.00
31681;BME280;18281;51.364;9.566;2023-03-17T05:46:19;99621.91;;;-0.37;100.00
31681;BME280;18281;51.364;9.566;2023-03-17T05:48:44;99614.31;;;-0.47;100.00
31681;BME280;18281;51.364;9.566;2023-03-17T05:51:11;99622.22;;;-0.56;100.00
31681;BME280;18281;51.364;9.566;2023-03-17T05:53:36;99630.06;;;-0.62;100.00
31681;BME280;18281;51.364;9.566;2023-03-17T05:56:02;99633.59;;;-0.69;100.00
31681;BME280;18281;51.364;9.566;2023-03-17T05:58:27;99633.69;;;-0.75;100.00
31681;BME280;18281;51.364;9.566;2023-03-17T06:00:53;99638.09;;;-0.82;100.00
31681;BME280;18281;51.364;9.566;2023-03-17T06:03:18;99639.00;;;-0.85;100.00
31681;BME280;18281;51.364;9.566;2023-03-17T06:05:44;99648.47;;;-0.88;100.00
31681;BME280;18281;51.364;9.566;2023-03-17T06:08:10;99641.59;;;-0.88;100.00
31681;BME280;18281;51.364;9.566;2023-03-17T06:10:35;99636.50;;;-0.91;100.00
31681;BME280;18281;51.364;9.566;2023-03-17T06:13:01;99633.06;;;-0.93;100.00
31681;BME280;18281;51.364;9.566;2023-03-17T06:15:26;99620.19;;;-0.93;100.00
31681;BME280;18281;51.364;9.566;2023-03-17T06:17:53;99606.50;;;-0.95;100.00
31681;BME280;18281;51.364;9.566;2023-03-17T06:20:18;99593.69;;;-1.01;100.00
31681;BME280;18281;51.364;9.566;2023-03-17T06:22:43;99594.56;;;-1.01;100.00
31681;BME280;18281;51.364;9.566;2023-03-17T06:25:10;99603.16;;;-1.03;100.00
31681;BME280;18281;51.364;9.566;2023-03-17T06:27:35;99616.06;;;-1.06;100.00
31681;BME280;18281;51.364;9.566;2023-03-17T06:30:03;99616.91;;;-1.04;100.00
31681;BME280;18281;51.364;9.566;2023-03-17T06:32:28;99622.06;;;-1.04;100.00
31681;BME280;18281;51.364;9.566;2023-03-17T06:34:55;99622.03;;;-1.03;100.00
31681;BME280;18281;51.364;9.566;2023-03-17T06:37:20;99621.22;;;-1.06;100.00
31681;BME280;18281;51.364;9.566;2023-03-17T06:39:45;99626.34;;;-1.02;100.00
31681;BME280;18281;51.364;9.566;2023-03-17T06:42:12;99623.78;;;-1.03;100.00
31681;BME280;18281;51.364;9.566;2023-03-17T06:44:37;99619.44;;;-1.01;100.00
31681;BME280;18281;51.364;9.566;2023-03-17T06:47:03;99619.41;;;-0.97;100.00
31681;BME280;18281;51.364;9.566;2023-03-17T06:49:29;99616.84;;;-0.98;100.00
31681;BME280;18281;51.364;9.566;2023-03-17T06:51:54;99621.09;;;-0.95;100.00
31681;BME280;18281;51.364;9.566;2023-03-17T06:54:20;99620.16;;;-0.90;100.00
31681;BME280;18281;51.364;9.566;2023-03-17T06:56:48;99614.91;;;-0.84;100.00
31681;BME280;18281;51.364;9.566;2023-03-17T06:59:14;99614.88;;;-0.81;100.00
31681;BME280;18281;51.364;9.566;2023-03-17T07:01:39;99617.31;;;-0.73;100.00
31681;BME280;18281;51.364;9.566;2023-03-17T07:04:05;99617.31;;;-0.71;100.00
31681;BME280;18281;51.364;9.566;2023-03-17T07:06:30;99617.25;;;-0.68;100.00
31681;BME280;18281;51.364;9.566;2023-03-17T07:08:56;99613.78;;;-0.66;100.00
31681;BME280;18281;51.364;9.566;2023-03-17T07:11:22;99612.75;;;-0.57;100.00
31681;BME280;18281;51.364;9.566;2023-03-17T07:13:48;99605.72;;;-0.45;100.00
31681;BME280;18281;51.364;9.566;2023-03-17T07:16:14;99605.66;;;-0.42;100.00
31681;BME280;18281;51.364;9.566;2023-03-17T07:18:41;99614.19;;;-0.37;100.00
31681;BME280;18281;51.364;9.566;2023-03-17T07:21:07;99615.00;;;-0.37;100.00
31681;BME280;18281;51.364;9.566;2023-03-17T07:23:34;99613.00;;;-0.18;100.00
31681;BME280;18281;51.364;9.566;2023-03-17T07:26:00;99618.88;;;-0.09;100.00
31681;BME280;18281;51.364;9.566;2023-03-17T07:28:25;99619.47;;;0.05;100.00
31681;BME280;18281;51.364;9.566;2023-03-17T07:30:51;99622.75;;;0.13;100.00
31681;BME280;18281;51.364;9.566;2023-03-17T07:33:18;99614.22;;;0.10;100.00
31681;BME280;18281;51.364;9.566;2023-03-17T07:35:46;99611.31;;;0.27;100.00
31681;BME280;18281;51.364;9.566;2023-03-17T07:38:13;99617.09;;;0.38;100.00
31681;BME280;18281;51.364;9.566;2023-03-17T07:40:39;99616.16;;;0.42;100.00
31681;BME280;18281;51.364;9.566;2023-03-17T07:43:05;99609.88;;;0.56;100.00
31681;BME280;18281;51.364;9.566;2023-03-17T07:45:31;99606.69;;;0.83;100.00
31681;BME280;18281;51.364;9.566;2023-03-17T07:47:57;99603.09;;;0.91;100.00
31681;BME280;18281;51.364;9.566;2023-03-17T07:50:22;99598.72;;;0.94;100.00
31681;BME280;18281;51.364;9.566;2023-03-17T07:52:48;99595.03;;;1.06;100.00
31681;BME280;18281;51.364;9.566;2023-03-17T07:55:13;99588.81;;;1.13;100.00
31681;BME280;18281;51.364;9.566;2023-03-17T07:57:39;99583.59;;;1.16;100.00
31681;BME280;18281;51.364;9.566;2023-03-17T08:00:06;99580.38;;;1.77;100.00
31681;BME280;18281;51.364;9.566;2023-03-17T08:02:35;99582.13;;;2.08;100.00
31681;BME280;18281;51.364;9.566;2023-03-17T08:05:03;99571.91;;;2.03;100.00
31681;BME280;18281;51.364;9.566;2023-03-17T08:07:29;99559.81;;;2.04;100.00
31681;BME280;18281;51.364;9.566;2023-03-17T08:09:56;99552.59;;;2.15;100.00
31681;BME280;18281;51.364;9.566;2023-03-17T08:12:22;99546.19;;;2.27;100.00
31681;BME280;18281;51.364;9.566;2023-03-17T08:14:47;99548.19;;;2.49;100.00
31681;BME280;18281;51.364;9.566;2023-03-17T08:17:13;99545.28;;;2.60;100.00
31681;BME280;18281;51.364;9.566;2023-03-17T08:19:41;99542.25;;;2.74;100.00
31681;BME280;18281;51.364;9.566;2023-03-17T08:22:06;99548.09;;;2.80;100.00
31681;BME280;18281;51.364;9.566;2023-03-17T08:24:32;99552.81;;;2.96;100.00
31681;BME280;18281;51.364;9.566;2023-03-17T08:26:57;99552.38;;;3.10;100.00
31681;BME280;18281;51.364;9.566;2023-03-17T08:29:23;99554.78;;;3.16;100.00
31681;BME280;18281;51.364;9.566;2023-03-17T08:31:48;99548.00;;;3.38;100.00
31681;BME280;18281;51.364;9.566;2023-03-17T08:34:14;99545.66;;;3.58;100.00
31681;BME280;18281;51.364;9.566;2023-03-17T08:36:40;99543.53;;;3.69;100.00
31681;BME280;18281;51.364;9.566;2023-03-17T08:39:06;99528.22;;;3.86;100.00
31681;BME280;18281;51.364;9.566;2023-03-17T08:41:31;99533.63;;;4.05;100.00
31681;BME280;18281;51.364;9.566;2023-03-17T08:43:57;99520.16;;;4.18;100.00
31681;BME280;18281;51.364;9.566;2023-03-17T08:46:25;99514.69;;;4.26;100.00
31681;BME280;18281;51.364;9.566;2023-03-17T08:48:52;99515.88;;;4.41;100.00
31681;BME280;18281;51.364;9.566;2023-03-17T08:51:20;99507.81;;;4.47;100.00
31681;BME280;18281;51.364;9.566;2023-03-17T08:53:46;99507.47;;;4.56;100.00
31681;BME280;18281;51.364;9.566;2023-03-17T08:56:13;99512.00;;;4.73;100.00
31681;BME280;18281;51.364;9.566;2023-03-17T08:58:38;99515.63;;;4.69;100.00
31681;BME280;18281;51.364;9.566;2023-03-17T09:01:05;99513.22;;;4.86;100.00
31681;BME280;18281;51.364;9.566;2023-03-17T09:03:32;99512.84;;;4.96;100.00
31681;BME280;18281;51.364;9.566;2023-03-17T09:05:57;99499.47;;;5.05;100.00
31681;BME280;18281;51.364;9.566;2023-03-17T09:08:24;99498.97;;;5.17;100.00
31681;BME280;18281;51.364;9.566;2023-03-17T09:10:51;99503.66;;;5.30;100.00
31681;BME280;18281;51.364;9.566;2023-03-17T09:13:17;99494.66;;;5.38;100.00
31681;BME280;18281;51.364;9.566;2023-03-17T09:15:43;99481.72;;;5.37;100.00
31681;BME280;18281;51.364;9.566;2023-03-17T09:18:10;99480.00;;;5.56;100.00
31681;BME280;18281;51.364;9.566;2023-03-17T09:20:36;99469.69;;;5.74;100.00
31681;BME280;18281;51.364;9.566;2023-03-17T09:23:04;99470.13;;;5.84;100.00
31681;BME280;18281;51.364;9.566;2023-03-17T09:25:33;99473.66;;;6.02;100.00
31681;BME280;18281;51.364;9.566;2023-03-17T09:27:59;99471.34;;;6.15;100.00
31681;BME280;18281;51.364;9.566;2023-03-17T09:30:24;99481.53;;;6.38;97.80
31681;BME280;18281;51.364;9.566;2023-03-17T09:32:51;99477.66;;;6.47;97.58
31681;BME280;18281;51.364;9.566;2023-03-17T09:35:17;99470.13;;;6.60;94.74
31681;BME280;18281;51.364;9.566;2023-03-17T09:37:42;99470.34;;;6.73;95.33
31681;BME280;18281;51.364;9.566;2023-03-17T09:40:14;99470.22;;;6.95;92.16
31681;BME280;18281;51.364;9.566;2023-03-17T09:42:50;99456.38;;;7.11;92.11
31681;BME280;18281;51.364;9.566;2023-03-17T09:48:21;99453.06;;;7.42;90.42
31681;BME280;18281;51.364;9.566;2023-03-17T09:50:55;99457.03;;;7.49;89.69
31681;BME280;18281;51.364;9.566;2023-03-17T09:53:29;99462.31;;;7.65;90.67
31681;BME280;18281;51.364;9.566;2023-03-17T09:56:00;99466.66;;;7.82;90.25
31681;BME280;18281;51.364;9.566;2023-03-17T09:58:31;99468.78;;;7.91;90.90
31681;BME280;18281;51.364;9.566;2023-03-17T10:00:58;99468.56;;;8.12;86.90
31681;BME280;18281;51.364;9.566;2023-03-17T10:03:24;99471.28;;;8.27;85.39
31681;BME280;18281;51.364;9.566;2023-03-17T10:05:51;99465.22;;;8.42;85.85
31681;BME280;18281;51.364;9.566;2023-03-17T10:13:53;99454.38;;;8.80;82.59
31681;BME280;18281;51.364;9.566;2023-03-17T10:19:03;99440.25;;;8.99;80.67
31681;BME280;18281;51.364;9.566;2023-03-17T10:21:32;99442.84;;;8.99;79.95
31681;BME280;18281;51.364;9.566;2023-03-17T10:24:00;99435.75;;;9.01;80.26
31681;BME280;18281;51.364;9.566;2023-03-17T10:26:31;99438.03;;;9.21;78.47
31681;BME280;18281;51.364;9.566;2023-03-17T10:28:58;99440.38;;;9.26;78.42
31681;BME280;18281;51.364;9.566;2023-03-17T10:31:32;99431.53;;;9.43;77.97
31681;BME280;18281;51.364;9.566;2023-03-17T10:34:22;99433.41;;;9.55;76.33
31681;BME280;18281;51.364;9.566;2023-03-17T10:37:12;99429.47;;;9.63;77.48
31681;BME280;18281;51.364;9.566;2023-03-17T10:39:46;99426.41;;;9.70;75.93
31681;BME280;18281;51.364;9.566;2023-03-17T10:42:26;99428.00;;;9.73;77.07
31681;BME280;18281;51.364;9.566;2023-03-17T10:47:38;99430.31;;;10.06;91.41
31681;BME280;18281;51.364;9.566;2023-03-17T10:52:40;99430.84;;;10.53;89.48
31681;BME280;18281;51.364;9.566;2023-03-17T10:55:07;99422.25;;;10.51;84.85
31681;BME280;18281;51.364;9.566;2023-03-17T10:57:36;99428.25;;;10.39;84.59
31681;BME280;18281;51.364;9.566;2023-03-17T11:00:15;99424.66;;;10.54;84.80
31681;BME280;18281;51.364;9.566;2023-03-17T11:02:54;99431.59;;;10.55;83.12
31681;BME280;18281;51.364;9.566;2023-03-17T11:05:23;99429.97;;;10.67;80.94
31681;BME280;18281;51.364;9.566;2023-03-17T11:08:09;99424.59;;;10.69;81.91
31681;BME280;18281;51.364;9.566;2023-03-17T11:10:39;99428.50;;;10.76;81.59
31681;BME280;18281;51.364;9.566;2023-03-17T11:13:06;99432.25;;;10.86;79.30
31681;BME280;18281;51.364;9.566;2023-03-17T11:16:04;99430.53;;;10.85;79.69
31681;BME280;18281;51.364;9.566;2023-03-17T11:18:34;99429.81;;;10.83;79.76
31681;BME280;18281;51.364;9.566;2023-03-17T11:21:07;99432.03;;;10.89;77.83
31681;BME280;18281;51.364;9.566;2023-03-17T11:23:46;99426.56;;;10.92;77.73
31681;BME280;18281;51.364;9.566;2023-03-17T11:37:15;99413.69;;;11.02;78.26
31681;BME280;18281;51.364;9.566;2023-03-17T11:39:57;99414.50;;;11.03;78.76
31681;BME280;18281;51.364;9.566;2023-03-17T11:42:32;99415.66;;;10.99;79.69
31681;BME280;18281;51.364;9.566;2023-03-17T11:45:17;99407.56;;;11.02;80.45
31681;BME280;18281;51.364;9.566;2023-03-17T11:48:02;99404.66;;;11.06;79.19
31681;BME280;18281;51.364;9.566;2023-03-17T11:50:51;99404.53;;;11.08;80.19
31681;BME280;18281;51.364;9.566;2023-03-17T11:53:46;99407.81;;;11.12;80.33
31681;BME280;18281;51.364;9.566;2023-03-17T11:59:00;99403.38;;;11.12;79.47
31681;BME280;18281;51.364;9.566;2023-03-17T12:01:31;99396.25;;;11.14;78.82
31681;BME280;18281;51.364;9.566;2023-03-17T12:04:19;99395.09;;;11.18;79.57
31681;BME280;18281;51.364;9.566;2023-03-17T12:06:58;99398.13;;;11.12;79.74
31681;BME280;18281;51.364;9.566;2023-03-17T12:09:42;99401.50;;;11.14;80.23
31681;BME280;18281;51.364;9.566;2023-03-17T12:12:13;99387.00;;;11.21;81.23
31681;BME280;18281;51.364;9.566;2023-03-17T12:14:43;99391.84;;;11.28;79.05
31681;BME280;18281;51.364;9.566;2023-03-17T12:17:27;99386.38;;;11.31;80.56
31681;BME280;18281;51.364;9.566;2023-03-17T12:22:26;99390.56;;;11.33;80.54
31681;BME280;18281;51.364;9.566;2023-03-17T12:25:19;99393.84;;;11.37;81.29
31681;BME280;18281;51.364;9.566;2023-03-17T12:27:49;99390.25;;;11.51;82.25
31681;BME280;18281;51.364;9.566;2023-03-17T12:30:29;99389.25;;;11.65;88.26
31681;BME280;18281;51.364;9.566;2023-03-17T12:35:33;99389.91;;;11.68;87.27
31681;BME280;18281;51.364;9.566;2023-03-17T12:38:05;99388.31;;;11.66;83.06
31681;BME280;18281;51.364;9.566;2023-03-17T12:52:12;99374.78;;;11.59;78.79
31681;BME280;18281;51.364;9.566;2023-03-17T12:54:45;99378.97;;;11.62;80.18
31681;BME280;18281;51.364;9.566;2023-03-17T12:57:20;99376.47;;;11.60;77.25
31681;BME280;18281;51.364;9.566;2023-03-17T12:59:48;99382.13;;;11.67;78.29
31681;BME280;18281;51.364;9.566;2023-03-17T13:02:31;99381.19;;;11.68;79.69
31681;BME280;18281;51.364;9.566;2023-03-17T13:04:59;99374.00;;;11.70;76.05
31681;BME280;18281;51.364;9.566;2023-03-17T13:07:48;99384.75;;;11.67;74.94
31681;BME280;18281;51.364;9.566;2023-03-17T13:16:36;99367.47;;;11.75;75.92
31681;BME280;18281;51.364;9.566;2023-03-17T13:19:50;99363.38;;;11.71;73.52
31681;BME280;18281;51.364;9.566;2023-03-17T13:25:36;99346.34;;;11.77;75.85
31681;BME280;18281;51.364;9.566;2023-03-17T13:28:55;99354.25;;;11.77;74.23
31681;BME280;18281;51.364;9.566;2023-03-17T13:31:34;99344.66;;;11.76;75.62
31681;BME280;18281;51.364;9.566;2023-03-17T13:34:39;99341.09;;;11.77;73.95
31681;BME280;18281;51.364;9.566;2023-03-17T13:45:54;99343.28;;;11.83;71.78
31681;BME280;18281;51.364;9.566;2023-03-17T13:48:24;99343.59;;;11.79;72.84
31681;BME280;18281;51.364;9.566;2023-03-17T13:53:49;99336.53;;;11.79;72.77
31681;BME280;18281;51.364;9.566;2023-03-17T14:02:23;99338.25;;;11.80;75.10
31681;BME280;18281;51.364;9.566;2023-03-17T14:05:06;99339.81;;;11.83;77.15
31681;BME280;18281;51.364;9.566;2023-03-17T14:08:00;99328.44;;;11.82;74.71
31681;BME280;18281;51.364;9.566;2023-03-17T14:10:31;99330.00;;;11.85;77.34
31681;BME280;18281;51.364;9.566;2023-03-17T14:13:26;99325.75;;;11.71;69.49
31681;BME280;18281;51.364;9.566;2023-03-17T14:16:29;99311.81;;;11.82;73.47
31681;BME280;18281;51.364;9.566;2023-03-17T14:21:48;99317.72;;;11.85;78.18
31681;BME280;18281;51.364;9.566;2023-03-17T14:24:34;99316.84;;;11.85;75.90
31681;BME280;18281;51.364;9.566;2023-03-17T14:27:12;99311.66;;;11.72;72.95
31681;BME280;18281;51.364;9.566;2023-03-17T14:29:43;99317.63;;;11.74;70.30